Terminal Aerodrome Forecast
Issued by NWS Mt. Holly, NJ

Home | Current Version | Previous Version | Text Only | Print | Product List | Glossary On
Versions: 1 2 3 4 5 6 7 8 9 10 11 12 13 14 15 16 17 18 19 20 21 22 23 24 25 26 27 28 29 30 31 32 33 34
353
FTUS41 KPHI 180520
TAFABE
TAF
KABE 180520Z 1806/1906 VRB04KT 6SM -SN BKN025 OVC040
      TEMPO 1807/1811 2SM -SN OVC010
     FM181100 VRB03KT 6SM BR OVC006
     FM181600 25005KT P6SM OVC012
     FM182100 29005KT P6SM SCT015=

USA.gov is the U.S. government's official web portal to all federal, state and local government web resources and services.